Time;durP1;ratioP1;P1;durP2;ratioP2;P2;SDS_P1;SDS_P2;PMS_P1;PMS_P2;Temp;Humidity;BMP_temperature;BMP_pressure;BME280_temperature;BME280_humidity;BME280_pressure;Samples;Min_cycle;Max_cycle;Signal;HPM_P1;HPM_P2
2022/05/11 00:01:39;;;;;;;7.55;5.18;;;;;;;21.91;46.53;101421.03;5066759;28;20628;-52
2022/05/11 00:04:09;;;;;;;9.18;5.57;;;;;;;21.91;46.72;101406.69;5064904;28;20419;-52
2022/05/11 00:06:37;;;;;;;8.20;5.30;;;;;;;21.91;46.85;101404.00;5069629;28;20063;-51
2022/05/11 00:09:06;;;;;;;9.48;5.22;;;;;;;21.90;46.67;101397.72;5068396;28;20058;-54
2022/05/11 00:11:34;;;;;;;10.57;5.30;;;;;;;21.90;46.97;101396.91;5068283;28;20044;-52
2022/05/11 00:14:01;;;;;;;9.50;5.45;;;;;;;21.89;46.82;101396.06;5065018;28;20514;-51
2022/05/11 00:16:28;;;;;;;7.30;4.97;;;;;;;21.88;46.81;101386.28;5068868;28;20487;-54
2022/05/11 00:18:55;;;;;;;9.27;5.00;;;;;;;21.89;46.72;101393.34;5066826;28;20105;-55
2022/05/11 00:21:22;;;;;;;9.32;4.65;;;;;;;21.87;46.87;101387.28;5067171;28;20043;-52
2022/05/11 00:23:52;;;;;;;9.88;4.95;;;;;;;21.86;46.75;101379.34;5068564;28;20043;-54
2022/05/11 00:26:19;;;;;;;12.88;5.25;;;;;;;21.86;46.96;101382.03;5067244;28;20045;-52
2022/05/11 00:28:46;;;;;;;9.15;4.88;;;;;;;21.85;46.86;101380.34;5065332;28;20040;-53
2022/05/11 00:31:13;;;;;;;10.05;5.25;;;;;;;21.83;46.99;101372.44;5064895;28;20051;-55
2022/05/11 00:33:40;;;;;;;7.55;5.07;;;;;;;21.85;46.96;101375.81;5065753;28;20048;-52
2022/05/11 00:36:11;;;;;;;9.07;5.20;;;;;;;21.83;46.98;101376.97;5064886;28;20055;-52
2022/05/11 00:38:40;;;;;;;6.50;4.40;;;;;;;21.83;47.08;101368.88;5066675;28;20052;-53
2022/05/11 00:41:07;;;;;;;10.13;5.13;;;;;;;21.82;47.17;101367.19;5067536;28;20076;-53
2022/05/11 00:43:40;;;;;;;8.68;4.78;;;;;;;21.81;46.83;101360.13;5066275;28;20050;-54
2022/05/11 00:46:59;;;;;;;8.25;4.50;;;;;;;21.80;47.26;101366.53;5067651;28;20054;-55
2022/05/11 00:49:36;;;;;;;8.10;4.80;;;;;;;21.80;46.97;101359.28;5057737;28;20045;-54
2022/05/11 00:52:18;;;;;;;7.25;4.00;;;;;;;21.80;47.37;101364.66;5072735;28;20087;-52
2022/05/11 00:54:59;;;;;;;9.23;5.07;;;;;;;21.80;47.17;101361.13;5070936;28;20171;-53
2022/05/11 00:57:35;;;;;;;11.90;4.75;;;;;;;21.80;47.21;101350.34;5066636;28;20055;-52
2022/05/11 01:00:05;;;;;;;8.40;4.70;;;;;;;21.79;47.19;101359.41;5069761;28;20155;-51
2022/05/11 01:02:32;;;;;;;8.05;4.25;;;;;;;21.78;47.48;101345.09;5066818;28;20040;-56
2022/05/11 01:05:03;;;;;;;9.88;4.85;;;;;;;21.77;47.09;101356.91;5067395;28;20139;-51
2022/05/11 01:07:31;;;;;;;7.00;4.32;;;;;;;21.76;47.29;101346.28;5070955;28;20309;-51
2022/05/11 01:09:58;;;;;;;8.50;4.47;;;;;;;21.76;47.11;101354.38;5071390;28;20048;-51
2022/05/11 01:12:40;;;;;;;6.57;4.20;;;;;;;21.75;47.52;101352.66;5072530;28;20776;-53
2022/05/11 01:15:10;;;;;;;9.45;4.80;;;;;;;21.75;47.47;101347.28;5072068;28;20044;-51
2022/05/11 01:17:38;;;;;;;7.95;4.47;;;;;;;21.74;47.28;101343.72;5067335;28;20118;-52
2022/05/11 01:20:08;;;;;;;6.55;3.88;;;;;;;21.75;47.52;101339.19;5070604;28;20048;-53
2022/05/11 01:23:03;;;;;;;6.90;4.07;;;;;;;21.74;47.70;101334.81;5071529;28;20585;-49
2022/05/11 01:25:32;;;;;;;6.97;4.32;;;;;;;21.75;47.55;101333.78;4999655;28;21443;-53
2022/05/11 01:28:11;;;;;;;7.03;4.05;;;;;;;21.74;47.70;101340.19;5070890;28;20049;-53
2022/05/11 01:30:49;;;;;;;8.15;4.40;;;;;;;21.73;47.58;101330.41;5068213;28;20044;-54
2022/05/11 01:33:22;;;;;;;6.13;3.92;;;;;;;21.71;47.44;101336.00;5069579;28;20109;-54
2022/05/11 01:35:49;;;;;;;7.60;4.57;;;;;;;21.73;47.86;101330.41;5069044;28;20055;-53
2022/05/11 01:38:40;;;;;;;8.50;3.97;;;;;;;21.69;47.74;101319.94;5069795;28;20040;-55
2022/05/11 01:41:20;;;;;;;7.60;3.83;;;;;;;21.72;47.43;101315.25;5069784;28;20052;-50
2022/05/11 01:43:47;;;;;;;6.18;3.63;;;;;;;21.72;47.68;101317.94;5070416;28;20044;-52
2022/05/11 01:46:15;;;;;;;6.25;3.55;;;;;;;21.70;47.43;101320.78;5069870;28;20048;-54
2022/05/11 01:48:43;;;;;;;6.90;3.83;;;;;;;21.71;47.67;101321.63;5069328;28;20040;-52
2022/05/11 01:51:12;;;;;;;7.75;4.20;;;;;;;21.69;47.89;101314.56;5070760;28;20147;-51
2022/05/11 01:53:38;;;;;;;7.03;3.80;;;;;;;21.69;47.80;101319.13;5070065;28;20128;-53
2022/05/11 01:56:06;;;;;;;7.20;3.58;;;;;;;21.68;47.55;101317.44;5068602;28;20063;-52
2022/05/11 01:58:34;;;;;;;10.02;4.47;;;;;;;21.68;47.45;101312.03;5067072;28;20096;-51
2022/05/11 02:01:01;;;;;;;6.15;3.78;;;;;;;21.67;47.64;101305.81;5069266;28;20083;-53
2022/05/11 02:03:27;;;;;;;8.32;3.90;;;;;;;21.67;47.66;101315.75;5065961;28;20043;-50
2022/05/11 02:08:46;;;;;;;7.63;3.40;;;;;;;21.67;47.47;101310.34;5068654;28;20055;-52
2022/05/11 02:11:14;;;;;;;6.55;3.83;;;;;;;21.65;47.80;101305.09;5070805;28;20450;-53
2022/05/11 02:13:41;;;;;;;5.85;3.75;;;;;;;21.66;47.63;101300.56;5069192;28;20058;-52
2022/05/11 02:16:07;;;;;;;6.63;3.88;;;;;;;21.64;47.85;101306.13;5069025;28;20139;-52
2022/05/11 02:18:34;;;;;;;7.28;3.90;;;;;;;21.67;47.57;101315.75;5068600;28;20055;-55
2022/05/11 02:21:01;;;;;;;9.20;3.83;;;;;;;21.65;47.68;101318.59;5069032;28;20525;-53
2022/05/11 02:23:27;;;;;;;7.22;3.72;;;;;;;21.65;47.73;101309.66;5066673;28;20036;-51
2022/05/11 02:25:54;;;;;;;8.32;4.13;;;;;;;21.64;47.95;101313.38;5067855;28;20055;-53
2022/05/11 02:28:21;;;;;;;6.03;3.67;;;;;;;21.64;47.75;101305.28;5068472;28;20044;-52
2022/05/11 02:30:51;;;;;;;5.65;3.65;;;;;;;21.62;47.82;101302.75;5068576;28;20486;-53
2022/05/11 02:33:18;;;;;;;5.82;3.55;;;;;;;21.62;47.93;101302.75;5067297;28;20143;-54
2022/05/11 02:35:45;;;;;;;5.45;3.45;;;;;;;21.63;47.50;101303.59;5065462;28;20071;-53
2022/05/11 02:38:15;;;;;;;6.15;3.60;;;;;;;21.62;48.05;101296.50;5065637;28;20547;-53
2022/05/11 02:40:42;;;;;;;5.85;3.33;;;;;;;21.61;48.08;101295.66;5070840;28;20131;-52
2022/05/11 02:43:09;;;;;;;6.68;3.88;;;;;;;21.60;47.85;101285.06;5066656;28;20047;-51
2022/05/11 02:45:41;;;;;;;5.35;3.38;;;;;;;21.61;47.94;101274.09;5066814;28;20084;-54
2022/05/11 02:48:10;;;;;;;4.78;3.13;;;;;;;21.60;47.68;101275.09;5069460;28;20091;-54
2022/05/11 02:50:40;;;;;;;7.35;3.53;;;;;;;21.60;47.85;101272.41;5067989;28;20051;-52
2022/05/11 02:53:08;;;;;;;5.65;3.40;;;;;;;21.59;48.17;101269.88;5068341;28;20123;-53
2022/05/11 02:55:36;;;;;;;7.10;3.90;;;;;;;21.58;48.40;101266.31;5068200;28;20048;-51
2022/05/11 02:58:03;;;;;;;6.05;3.08;;;;;;;21.59;48.14;101269.88;5069146;28;20159;-50
2022/05/11 03:00:31;;;;;;;8.30;3.50;;;;;;;21.58;48.20;101268.16;5067431;28;20143;-49
2022/05/11 03:02:59;;;;;;;5.82;3.67;;;;;;;21.57;47.92;101264.63;5071894;28;20055;-52
2022/05/11 03:05:25;;;;;;;5.85;3.03;;;;;;;21.58;47.96;101269.00;5067578;28;20151;-51
2022/05/11 03:07:54;;;;;;;7.35;3.25;;;;;;;21.58;48.06;101268.16;5064643;28;20062;-54
2022/05/11 03:10:21;;;;;;;6.13;3.28;;;;;;;21.57;47.83;101261.94;5067629;28;20131;-53
2022/05/11 03:12:48;;;;;;;5.80;2.97;;;;;;;21.58;48.13;101262.78;5068389;28;20051;-49
2022/05/11 03:15:15;;;;;;;4.53;2.97;;;;;;;21.57;48.30;101259.25;5067624;28;20064;-54
2022/05/11 03:17:42;;;;;;;6.32;3.15;;;;;;;21.56;48.35;101257.56;5068962;28;20044;-53
2022/05/11 03:20:09;;;;;;;5.45;2.85;;;;;;;;;;5069406;28;20295;-53
2022/05/11 03:22:35;;;;;;;7.28;3.10;;;;;;;;;;5068616;28;20055;-51
2022/05/11 03:25:02;;;;;;;6.85;2.72;;;;;;;;;;5066896;28;20143;-53
2022/05/11 03:27:29;;;;;;;5.18;3.30;;;;;;;;;;5067026;28;20052;-51
2022/05/11 03:29:55;;;;;;;4.70;2.85;;;;;;;21.53;47.98;101255.19;5066459;28;20044;-53
2022/05/11 03:35:11;;;;;;;8.45;3.25;;;;;;;;;;5063628;28;20160;-51
2022/05/11 03:37:38;;;;;;;7.88;3.00;;;;;;;21.53;48.33;101246.25;5065120;28;20163;-53
2022/05/11 03:40:07;;;;;;;8.13;3.30;;;;;;;21.52;48.03;101242.72;5066592;28;20048;-52
2022/05/11 03:42:35;;;;;;;6.15;2.83;;;;;;;21.51;48.16;101241.03;5068069;28;20483;-51
2022/05/11 03:45:20;;;;;;;5.05;2.70;;;;;;;21.51;47.95;101235.66;5067037;28;20066;-53
2022/05/11 03:47:47;;;;;;;5.93;2.92;;;;;;;21.52;47.95;101236.50;5066109;28;20044;-53
2022/05/11 03:50:17;;;;;;;5.30;2.70;;;;;;;21.52;48.02;101239.19;5068649;28;20706;-52
2022/05/11 03:52:43;;;;;;;6.50;2.70;;;;;;;21.51;48.07;101235.66;5066959;28;20045;-52
2022/05/11 03:55:10;;;;;;;4.82;2.42;;;;;;;21.50;47.98;101236.63;5068277;28;20045;-52
2022/05/11 03:57:38;;;;;;;4.50;2.60;;;;;;;21.50;48.20;101239.34;5062852;28;20040;-54
2022/05/11 04:00:08;;;;;;;6.63;2.85;;;;;;;21.50;48.24;101233.94;5061446;28;20562;-54
2022/05/11 04:02:35;;;;;;;11.60;3.40;;;;;;;21.51;47.96;101229.38;5065348;28;20036;-52
2022/05/11 04:05:03;;;;;;;14.52;4.03;;;;;;;21.50;48.08;101231.25;5065890;28;20067;-50
2022/05/11 04:07:30;;;;;;;12.73;4.10;;;;;;;21.50;48.50;101230.41;5065635;28;20080;-50
2022/05/11 04:09:57;;;;;;;19.83;4.07;;;;;;;21.51;48.05;101229.38;5069261;28;20057;-53
2022/05/11 04:12:24;;;;;;;16.60;4.45;;;;;;;21.49;47.95;101216.06;5067082;28;20412;-53
2022/05/11 04:14:50;;;;;;;13.25;5.13;;;;;;;21.49;47.68;101221.47;5064395;28;20048;-52
2022/05/11 04:17:17;;;;;;;17.92;4.90;;;;;;;21.49;48.14;101221.47;5068000;28;20110;-50
2022/05/11 04:19:43;;;;;;;11.88;3.90;;;;;;;21.47;47.77;101207.31;5062355;28;20046;-53
2022/05/11 04:22:10;;;;;;;13.75;4.13;;;;;;;21.48;47.62;101214.41;5061402;28;20056;-53
2022/05/11 04:24:37;;;;;;;15.15;4.97;;;;;;;21.48;47.92;101219.78;5067956;28;20037;-53
2022/05/11 04:27:04;;;;;;;15.93;5.00;;;;;;;21.47;48.01;101218.13;5067816;28;20055;-55
2022/05/11 04:29:30;;;;;;;19.75;4.50;;;;;;;21.48;47.85;101222.50;5067847;28;20048;-51
2022/05/11 04:31:57;;;;;;;11.40;4.57;;;;;;;21.47;47.61;101210.03;5068273;28;20052;-54
2022/05/11 04:34:24;;;;;;;17.52;5.03;;;;;;;21.48;47.94;101214.41;5066763;28;20450;-52
2022/05/11 04:36:52;;;;;;;13.45;4.45;;;;;;;21.48;47.54;101218.94;5067058;28;20053;-52
2022/05/11 04:39:18;;;;;;;16.45;4.60;;;;;;;21.47;47.33;101212.72;5065891;28;20420;-50
2022/05/11 04:41:45;;;;;;;11.63;4.05;;;;;;;21.47;47.69;101223.50;5069554;28;20052;-51
2022/05/11 04:44:11;;;;;;;10.60;4.32;;;;;;;21.47;47.47;101226.22;5068817;28;20055;-53
2022/05/11 04:46:38;;;;;;;16.13;5.32;;;;;;;21.46;47.56;101219.09;5067500;28;20063;-53
2022/05/11 04:49:23;;;;;;;11.57;4.45;;;;;;;21.46;47.77;101215.56;5066326;28;20301;-52
2022/05/11 04:51:58;;;;;;;17.73;4.70;;;;;;;21.46;47.43;101221.78;5065120;28;20051;-53
2022/05/11 04:54:25;;;;;;;17.15;5.13;;;;;;;21.45;47.51;101214.72;5067735;28;20266;-54
2022/05/11 04:56:51;;;;;;;10.82;4.53;;;;;;;21.45;47.37;101222.81;5063317;28;20045;-49
2022/05/11 04:59:18;;;;;;;10.55;4.40;;;;;;;21.45;47.23;101220.13;5069395;28;20141;-52
2022/05/11 05:01:45;;;;;;;16.73;5.15;;;;;;;21.43;47.03;101217.59;5066360;28;20420;-52
2022/05/11 05:04:12;;;;;;;13.18;4.10;;;;;;;21.45;47.48;101220.13;5065705;28;20115;-53
2022/05/11 05:06:38;;;;;;;12.38;4.50;;;;;;;21.44;47.34;101215.75;5066378;28;20120;-52
2022/05/11 05:09:06;;;;;;;18.40;4.80;;;;;;;21.43;47.05;101214.06;5067499;28;20049;-52
2022/05/11 05:11:33;;;;;;;12.15;5.10;;;;;;;21.43;47.10;101217.59;5072326;28;20046;-54
2022/05/11 05:14:00;;;;;;;9.80;4.38;;;;;;;21.42;46.82;101215.88;5067915;28;20048;-51
2022/05/11 05:16:27;;;;;;;8.88;4.10;;;;;;;21.43;46.72;101222.16;5065632;28;20063;-53
2022/05/11 05:18:54;;;;;;;16.33;5.47;;;;;;;21.42;46.78;101221.28;5067167;28;20045;-54
2022/05/11 05:21:21;;;;;;;8.45;3.83;;;;;;;21.42;47.00;101223.13;5065742;28;20059;-51
2022/05/11 05:23:52;;;;;;;13.35;5.32;;;;;;;21.42;46.83;101225.84;5068873;28;20702;-51
2022/05/11 05:26:18;;;;;;;13.27;4.13;;;;;;;21.42;46.74;101221.28;5069998;28;20506;-49
2022/05/11 05:31:31;;;;;;;9.35;4.10;;;;;;;21.42;46.84;101226.69;5064974;28;20051;-51
2022/05/11 05:33:59;;;;;;;11.00;4.22;;;;;;;21.42;46.99;101232.06;5059366;28;20041;-53
2022/05/11 05:36:31;;;;;;;8.88;4.20;;;;;;;21.42;46.81;101233.94;5070290;28;20044;-52
2022/05/11 05:38:58;;;;;;;11.52;4.55;;;;;;;21.42;46.97;101229.38;5070937;28;20062;-54
2022/05/11 05:41:27;;;;;;;14.25;4.97;;;;;;;21.41;46.42;101230.41;5072120;28;20300;-52
2022/05/11 05:43:54;;;;;;;10.48;4.45;;;;;;;21.42;46.82;101231.22;5070344;28;20151;-51
2022/05/11 05:46:21;;;;;;;9.15;4.47;;;;;;;21.41;46.71;101235.78;5073089;28;20389;-51
2022/05/11 05:48:48;;;;;;;8.98;3.78;;;;;;;21.39;46.47;101232.44;5071272;28;20072;-52
2022/05/11 05:51:17;;;;;;;12.02;4.30;;;;;;;21.40;46.47;101238.66;5071361;28;20052;-53
2022/05/11 05:53:44;;;;;;;11.55;4.40;;;;;;;21.40;46.36;101233.28;5068210;28;20043;-54
2022/05/11 05:56:13;;;;;;;9.27;3.88;;;;;;;21.40;46.68;101233.28;5072984;28;20237;-53
2022/05/11 05:58:42;;;;;;;6.57;3.78;;;;;;;21.38;46.43;101228.03;5072973;28;20040;-54
2022/05/11 06:01:08;;;;;;;9.05;4.05;;;;;;;21.39;46.49;101235.13;5070032;28;20459;-52
2022/05/11 06:03:36;;;;;;;7.55;3.50;;;;;;;21.39;46.03;101226.19;5069017;28;20339;-52
2022/05/11 06:06:06;;;;;;;9.52;4.15;;;;;;;21.39;46.47;101236.97;5072716;28;20071;-52
2022/05/11 06:08:33;;;;;;;9.63;4.38;;;;;;;21.39;46.24;101236.97;5071983;28;20094;-53
2022/05/11 06:10:59;;;;;;;7.47;3.03;;;;;;;21.38;46.13;101230.72;5072730;28;20063;-53
2022/05/11 06:13:27;;;;;;;9.60;3.67;;;;;;;21.39;46.04;101229.72;5072085;28;20052;-53
2022/05/11 06:15:55;;;;;;;7.75;3.53;;;;;;;21.39;45.77;101231.59;5070293;28;20048;-51
2022/05/11 06:18:24;;;;;;;7.50;3.30;;;;;;;21.40;45.80;101231.41;5070039;28;20056;-51
2022/05/11 06:20:51;;;;;;;8.80;4.18;;;;;;;21.42;45.98;101229.38;5068282;28;20131;-53
2022/05/11 06:23:19;;;;;;;6.03;2.95;;;;;;;21.42;45.44;101232.06;5070217;28;20040;-52
2022/05/11 06:25:49;;;;;;;9.95;3.88;;;;;;;21.44;45.41;101231.94;5069088;28;20139;-52
2022/05/11 06:28:16;;;;;;;12.23;3.53;;;;;;;21.44;45.57;101229.22;5070864;28;20059;-53
2022/05/11 06:31:03;;;;;;;11.50;3.60;;;;;;;21.47;45.30;101233.44;5068507;28;20439;-51
2022/05/11 06:33:32;;;;;;;8.93;4.15;;;;;;;21.47;45.37;101233.44;5066816;28;20044;-52
2022/05/11 06:36:00;;;;;;;7.32;3.00;;;;;;;21.48;45.17;101233.28;5064384;28;20495;-51
2022/05/11 06:38:27;;;;;;;10.40;3.72;;;;;;;21.49;45.31;101229.56;5067712;28;20079;-52
2022/05/11 06:40:53;;;;;;;7.47;3.17;;;;;;;21.49;45.08;101229.56;5069268;28;20049;-51
2022/05/11 06:43:20;;;;;;;6.03;3.25;;;;;;;21.49;45.52;101226.88;5071308;28;20044;-52
2022/05/11 06:45:47;;;;;;;5.60;2.90;;;;;;;21.50;45.40;101225.84;5068702;28;20059;-52
2022/05/11 06:48:14;;;;;;;9.75;3.92;;;;;;;21.51;45.74;101224.84;5071007;28;20080;-51
2022/05/11 06:50:42;;;;;;;8.70;3.13;;;;;;;21.51;45.46;101222.16;5071289;28;20041;-54
2022/05/11 06:53:12;;;;;;;6.55;3.25;;;;;;;21.52;45.17;101215.75;5069044;28;20404;-51
2022/05/11 07:01:10;;;;;;;6.00;2.67;;;;;;;;;;5066972;28;20120;-51
2022/05/11 07:03:36;;;;;;;5.60;3.20;;;;;;;21.56;45.05;101229.75;5066452;28;20034;-53
2022/05/11 07:06:05;;;;;;;5.85;2.80;;;;;;;21.56;44.99;101227.88;5070198;28;20124;-53
2022/05/11 07:08:37;;;;;;;8.35;3.05;;;;;;;21.56;44.87;101224.34;5069024;28;20128;-54
2022/05/11 07:13:49;;;;;;;5.18;2.63;;;;;;;21.56;45.04;101225.19;5069310;28;20059;-54
2022/05/11 07:16:18;;;;;;;7.13;2.50;;;;;;;21.56;44.87;101225.19;5069291;28;20052;-53
2022/05/11 07:18:45;;;;;;;5.30;3.00;;;;;;;21.57;45.11;101229.56;5068571;28;20056;-52
2022/05/11 07:21:11;;;;;;;4.85;2.95;;;;;;;21.57;45.08;101218.78;5065734;28;20123;-53
2022/05/11 07:23:38;;;;;;;8.02;2.92;;;;;;;21.59;45.13;101215.94;5068059;28;20170;-52
2022/05/11 07:26:04;;;;;;;5.78;3.10;;;;;;;21.59;44.96;101215.94;5059765;28;20143;-51
2022/05/11 07:28:31;;;;;;;5.55;2.70;;;;;;;21.60;45.21;101215.75;5044728;28;20045;-53
2022/05/11 07:30:58;;;;;;;8.18;3.30;;;;;;;21.60;44.95;101231.94;5050916;28;20388;-52
2022/05/11 07:33:24;;;;;;;5.82;2.35;;;;;;;21.62;45.46;101211.00;5049749;28;20045;-54
2022/05/11 07:35:51;;;;;;;5.88;2.92;;;;;;;21.63;45.17;101204.63;5051557;28;20051;-52
2022/05/11 07:38:18;;;;;;;6.45;3.25;;;;;;;21.63;45.43;101193.84;5051929;28;20125;-53
2022/05/11 07:40:46;;;;;;;5.13;2.85;;;;;;;21.65;45.04;101201.75;5051344;28;20152;-51
2022/05/11 07:43:12;;;;;;;5.93;2.80;;;;;;;21.63;45.07;101190.31;5053333;28;20044;-51
2022/05/11 07:45:40;;;;;;;6.38;2.38;;;;;;;21.64;44.83;101208.16;5051857;28;20384;-54
2022/05/11 07:48:07;;;;;;;4.13;2.15;;;;;;;21.62;44.59;101200.22;5052360;28;20052;-54
2022/05/11 07:50:34;;;;;;;6.03;2.40;;;;;;;21.64;45.04;101208.16;5051571;28;20084;-54
2022/05/11 07:53:00;;;;;;;7.90;2.85;;;;;;;21.63;44.86;101196.53;5054034;28;20054;-55
2022/05/11 07:55:28;;;;;;;7.57;2.33;;;;;;;21.62;44.89;101208.31;5051729;28;20199;-52
2022/05/11 08:00:41;;;;;;;4.35;2.00;;;;;;;21.63;44.74;101201.94;5053541;28;20044;-52
2022/05/11 08:03:09;;;;;;;3.75;2.03;;;;;;;21.62;44.74;101197.53;5052730;28;20424;-53
2022/05/11 08:05:37;;;;;;;4.82;2.10;;;;;;;21.62;45.06;101197.53;5054800;28;20053;-52
2022/05/11 08:08:06;;;;;;;6.32;2.47;;;;;;;21.62;44.56;101199.38;5047030;28;20074;-54
2022/05/11 08:10:41;;;;;;;4.13;2.03;;;;;;;21.62;44.37;101197.53;5054096;28;20131;-52
2022/05/11 08:13:09;;;;;;;5.22;2.55;;;;;;;21.62;44.72;101200.22;5050607;28;20056;-53
2022/05/11 08:15:43;;;;;;;3.70;2.13;;;;;;;21.64;44.69;101205.47;5054818;28;20134;-55
2022/05/11 08:18:11;;;;;;;4.20;2.05;;;;;;;21.63;44.83;101201.09;5052575;28;20080;-52
2022/05/11 08:20:41;;;;;;;4.53;2.33;;;;;;;21.63;45.00;101212.72;5056648;28;20051;-54
2022/05/11 08:23:09;;;;;;;3.60;2.22;;;;;;;21.65;45.14;101205.28;5052448;28;20049;-54
2022/05/11 08:25:38;;;;;;;4.07;2.00;;;;;;;21.65;44.90;101193.66;5047721;28;20155;-52
2022/05/11 08:28:22;;;;;;;3.35;1.90;;;;;;;21.65;44.75;101201.75;5067293;28;20066;-55
2022/05/11 08:33:38;;;;;;;7.10;2.15;;;;;;;21.65;44.40;101202.59;5067055;28;20418;-52
2022/05/11 08:36:27;;;;;;;4.60;1.80;;;;;;;21.66;44.39;101215.06;5067962;28;20045;-53
2022/05/11 08:38:56;;;;;;;6.25;2.42;;;;;;;21.67;44.63;101202.44;5067238;28;20048;-52
2022/05/11 08:41:33;;;;;;;5.68;2.03;;;;;;;21.67;44.52;101210.53;5069907;28;20365;-53
2022/05/11 08:44:07;;;;;;;5.45;2.00;;;;;;;21.68;44.72;101207.66;5067902;28;20044;-56
2022/05/11 08:46:43;;;;;;;6.10;2.08;;;;;;;21.68;44.67;101210.34;5068716;28;20625;-55
2022/05/11 08:49:38;;;;;;;4.88;1.80;;;;;;;21.69;45.08;101206.63;5068614;28;20044;-54
2022/05/11 08:52:15;;;;;;;4.47;2.05;;;;;;;21.71;44.70;101203.78;5068039;28;20124;-53
2022/05/11 08:54:53;;;;;;;7.35;2.33;;;;;;;21.72;45.05;101210.88;5069144;28;20049;-55
2022/05/11 08:57:26;;;;;;;8.70;2.15;;;;;;;21.74;45.17;101202.59;5068611;28;20149;-55
2022/05/11 09:00:08;;;;;;;7.63;2.33;;;;;;;21.74;44.90;101208.81;5068079;28;20049;-53
2022/05/11 09:02:50;;;;;;;6.23;2.13;;;;;;;21.77;45.18;101204.97;5066899;28;20060;-51
2022/05/11 09:05:20;;;;;;;3.13;1.42;;;;;;;21.78;45.09;101204.78;5066445;28;20064;-52
2022/05/11 09:07:49;;;;;;;4.65;1.73;;;;;;;21.80;45.27;101207.31;5069034;28;20171;-52
2022/05/11 09:10:28;;;;;;;5.05;2.13;;;;;;;21.81;45.41;101203.59;5071484;28;20040;-53
2022/05/11 09:12:56;;;;;;;;;;;;;;;21.83;45.80;101204.25;5074226;28;20152;-52
2022/05/11 09:15:23;;;;;;;3.67;1.73;;;;;;;21.86;45.63;101202.06;5073229;28;19979;-55
2022/05/11 09:18:05;;;;;;;6.55;1.63;;;;;;;21.88;45.97;101193.81;5071536;28;20050;-55
2022/05/11 09:20:35;;;;;;;3.85;1.70;;;;;;;21.92;46.07;101214.06;5073131;28;20070;-53
2022/05/11 09:23:03;;;;;;;3.47;1.70;;;;;;;21.94;46.06;101207.47;5070953;28;20131;-54
2022/05/11 09:25:35;;;;;;;5.75;1.50;;;;;;;21.98;45.89;101210.66;5072952;28;20063;-52
2022/05/11 09:28:25;;;;;;;5.32;2.05;;;;;;;22.02;45.72;101200.38;5070323;28;20393;-54
2022/05/11 09:31:05;;;;;;;5.68;1.52;;;;;;;22.05;45.97;101211.66;5067761;28;20053;-52
2022/05/11 09:33:53;;;;;;;4.18;1.50;;;;;;;22.09;45.60;101210.31;5068055;28;20040;-53
2022/05/11 09:36:51;;;;;;;4.75;1.92;;;;;;;22.15;45.52;101212.38;5072265;28;20063;-55
2022/05/11 09:39:18;;;;;;;4.05;1.40;;;;;;;22.18;45.65;101209.31;5071001;28;20052;-55
2022/05/11 09:41:49;;;;;;;6.07;2.03;;;;;;;22.24;45.58;101215.06;5070776;28;20437;-56
2022/05/11 09:44:28;;;;;;;6.55;2.00;;;;;;;22.26;45.93;101213.84;5069823;28;20045;-55
2022/05/11 09:46:55;;;;;;;12.13;3.03;;;;;;;22.31;45.99;101221.44;5070556;28;20055;-56
2022/05/11 09:49:21;;;;;;;14.60;4.53;;;;;;;22.34;45.75;101218.38;5068103;28;20119;-57
2022/05/11 09:51:51;;;;;;;14.60;3.60;;;;;;;22.35;45.65;101220.94;5068009;28;20055;-55
2022/05/11 09:54:42;;;;;;;14.82;3.70;;;;;;;22.38;46.05;101215.16;5072978;28;20144;-56
2022/05/11 09:57:09;;;;;;;16.25;4.32;;;;;;;22.44;46.07;101218.22;5070567;28;20131;-56
2022/05/11 09:59:41;;;;;;;12.35;3.65;;;;;;;22.45;45.67;101222.59;5070485;28;20127;-55
2022/05/11 10:02:40;;;;;;;13.25;3.47;;;;;;;22.47;45.73;101215.97;5070621;28;20580;-54
2022/05/11 10:05:15;;;;;;;12.15;3.83;;;;;;;22.50;45.44;101210.22;5056137;28;20047;-53
2022/05/11 10:07:48;;;;;;;13.85;4.00;;;;;;;22.54;45.87;101211.56;5071378;28;20080;-55
2022/05/11 10:10:44;;;;;;;11.52;3.95;;;;;;;22.57;45.70;101218.50;5072564;28;20110;-56
2022/05/11 10:13:23;;;;;;;15.23;4.32;;;;;;;22.59;45.43;101225.41;5070395;28;20127;-55
2022/05/11 10:21:56;;;;;;;10.68;3.20;;;;;;;22.65;45.65;101202.25;5069505;28;20049;-56
2022/05/11 10:24:29;;;;;;;11.40;3.42;;;;;;;22.66;45.63;101220.13;5070469;28;20395;-52
2022/05/11 10:27:33;;;;;;;13.57;3.67;;;;;;;22.67;45.52;101206.47;5074736;28;20053;-55
2022/05/11 10:30:18;;;;;;;16.40;3.25;;;;;;;22.70;45.68;101210.66;5070445;28;20412;-55
2022/05/11 10:33:18;;;;;;;10.98;2.97;;;;;;;22.71;45.50;101215.03;5072978;28;20128;-54
2022/05/11 10:36:03;;;;;;;9.93;3.33;;;;;;;22.73;45.57;101213.03;5070700;28;20058;-55
2022/05/11 10:38:47;;;;;;;11.68;3.15;;;;;;;22.76;45.42;101203.72;5072529;28;20079;-54
2022/05/11 10:41:21;;;;;;;11.70;3.67;;;;;;;22.78;45.80;101212.50;5075950;28;20048;-53
2022/05/11 10:44:02;;;;;;;7.82;2.53;;;;;;;22.79;45.63;101215.00;5071713;28;20124;-53
2022/05/11 10:46:51;;;;;;;9.90;2.70;;;;;;;22.81;45.74;101212.97;5069788;28;20118;-55
2022/05/11 10:49:48;;;;;;;12.50;3.22;;;;;;;22.83;45.34;101213.63;5070959;28;20053;-53
2022/05/11 10:52:52;;;;;;;7.47;2.75;;;;;;;22.85;45.52;101203.50;5072460;28;20265;-52
2022/05/11 10:55:29;;;;;;;5.07;2.08;;;;;;;22.87;45.35;101204.19;5060677;28;20049;-54
2022/05/11 10:58:45;;;;;;;9.55;2.70;;;;;;;22.88;45.50;101202.31;5071158;28;20131;-55
2022/05/11 11:01:16;;;;;;;8.40;2.65;;;;;;;22.92;44.99;101206.38;4989264;28;20539;-56
2022/05/11 11:04:20;;;;;;;7.88;2.13;;;;;;;22.92;45.31;101203.69;5063667;28;20075;-57
2022/05/11 11:07:15;;;;;;;7.28;2.55;;;;;;;22.94;45.26;101200.78;5071894;28;20083;-57
2022/05/11 11:09:57;;;;;;;8.65;2.50;;;;;;;22.95;45.22;101200.59;5074309;28;20041;-54
2022/05/11 11:12:54;;;;;;;6.55;2.60;;;;;;;22.97;45.59;101200.44;5071561;28;20389;-55
2022/05/11 11:15:26;;;;;;;6.13;2.13;;;;;;;22.99;45.45;101198.38;5070922;28;20047;-56
2022/05/11 11:17:55;;;;;;;8.18;2.55;;;;;;;23.00;45.47;101198.22;5071770;28;20070;-54
2022/05/11 11:20:24;;;;;;;6.28;2.28;;;;;;;23.01;45.56;101193.66;5070745;28;20106;-54
2022/05/11 11:23:08;;;;;;;6.35;2.30;;;;;;;23.03;45.14;101194.31;5070835;28;20049;-54
2022/05/11 11:25:54;;;;;;;6.85;1.98;;;;;;;23.02;45.32;101193.47;5069187;28;20313;-54
2022/05/11 11:28:27;;;;;;;6.00;2.70;;;;;;;23.05;45.82;101195.81;5070037;28;20135;-54
2022/05/11 11:31:00;;;;;;;5.95;1.95;;;;;;;23.04;45.27;101188.75;5069766;28;20049;-55
2022/05/11 11:33:38;;;;;;;6.75;1.98;;;;;;;23.05;45.61;101181.47;5071102;28;20048;-53
2022/05/11 11:36:28;;;;;;;3.78;1.60;;;;;;;23.03;45.10;101178.91;5067940;28;20059;-53
2022/05/11 11:38:58;;;;;;;4.60;2.03;;;;;;;23.05;45.44;101171.50;5071604;28;20436;-55
2022/05/11 11:41:30;;;;;;;5.18;2.00;;;;;;;23.05;45.20;101178.75;5071275;28;20480;-55
2022/05/11 11:44:40;;;;;;;6.13;1.88;;;;;;;23.05;45.21;101171.50;5069176;28;20053;-55
2022/05/11 11:47:27;;;;;;;6.20;1.88;;;;;;;23.06;45.47;101167.75;5005526;28;20445;-55
2022/05/11 11:49:56;;;;;;;5.90;1.98;;;;;;;23.07;45.09;101155.06;5006829;28;20157;-54
2022/05/11 11:52:43;;;;;;;6.40;2.05;;;;;;;23.07;45.45;101172.13;5048925;28;20048;-55
2022/05/11 11:55:27;;;;;;;6.82;2.15;;;;;;;23.07;45.38;101172.13;5068817;28;20127;-55
2022/05/11 11:58:33;;;;;;;7.93;2.13;;;;;;;23.07;45.22;101166.72;5068360;28;20052;-55
2022/05/11 12:01:06;;;;;;;8.75;1.63;;;;;;;23.10;44.33;101173.66;5007165;28;20356;-55
2022/05/11 12:03:42;;;;;;;4.60;1.33;;;;;;;23.09;44.21;101153.03;5007289;28;20069;-54
2022/05/11 12:17:44;;;;;;;4.30;1.07;;;;;;;23.10;43.00;101173.66;5068269;28;20147;-56
2022/05/11 12:20:17;;;;;;;2.88;1.30;;;;;;;23.11;41.86;101162.63;5066770;28;20553;-55
2022/05/11 12:23:03;;;;;;;;;;;;;;;23.10;42.36;101174.47;5071956;28;20048;-54
2022/05/11 12:25:33;;;;;;;3.50;1.05;;;;;;;23.14;42.80;101166.84;5066994;28;19917;-54
2022/05/11 12:28:02;;;;;;;2.30;1.20;;;;;;;23.14;42.70;101175.81;5066635;28;20131;-55
2022/05/11 12:30:39;;;;;;;5.05;1.23;;;;;;;23.14;43.15;101161.44;5063652;28;20385;-54